This is the latest recevied weather packets stored in our database for station/object EA5GK-10. If no packets are shown the sender has not sent any weather packets the latest 1 day(s).
| Time | Temp. | Humidity | Pressure | Rain* | Wind** | Luminosity | Snow |
|---|---|---|---|---|---|---|---|
| 1778100330 | 22.78° C | 44% | 1013.5 hPa | - | - | - | - |
| 1778099430 | 22.78° C | 44% | 1013.6 hPa | - | - | - | - |
| 1778098530 | 22.78° C | 43% | 1013.5 hPa | - | - | - | - |
| 1778091329 | 22.78° C | 42% | 1012.2 hPa | - | - | - | - |
| 1778086828 | 23.33° C | 42% | 1011.8 hPa | - | - | - | - |
| 1778085928 | 23.33° C | 42% | 1011.7 hPa | - | - | - | - |
| 1778085028 | 23.33° C | 42% | 1011.8 hPa | - | - | - | - |
| 1778078728 | 22.78° C | 40% | 1011.2 hPa | - | - | - | - |
| 1778077827 | 22.78° C | 41% | 1011.2 hPa | - | - | - | - |
| 1778075126 | 22.78° C | 40% | 1011.4 hPa | - | - | - | - |
| 1778073325 | 22.78° C | 40% | 1011.7 hPa | - | - | - | - |
| 1778072423 | 22.78° C | 39% | 1011.7 hPa | - | - | - | - |
| 1778067922 | 22.78° C | 37% | 1012.5 hPa | - | - | - | - |
| 1778066122 | 22.22° C | 37% | 1012.7 hPa | - | - | - | - |
| 1778062521 | 22.22° C | 37% | 1013.1 hPa | - | - | - | - |
| 1778061621 | 22.22° C | 38% | 1013.3 hPa | - | - | - | - |
| 1778059821 | 21.67° C | 38% | 1013.4 hPa | - | - | - | - |
| 1778058921 | 21.67° C | 39% | 1013.4 hPa | - | - | - | - |
| 1778055320 | 21.11° C | 37% | 1013.4 hPa | - | - | - | - |
| 1778054420 | 21.11° C | 36% | 1013.5 hPa | - | - | - | - |
| 1778053520 | 21.11° C | 35% | 1013.3 hPa | - | - | - | - |
| 1778052620 | 21.11° C | 33% | 1013.5 hPa | - | - | - | - |
| 1778051720 | 20.56° C | 30% | 1013.1 hPa | - | - | - | - |
| 1778049019 | 21.11° C | 43% | 1012.7 hPa | - | - | - | - |
| 1778048119 | 21.11° C | 42% | 1012.6 hPa | - | - | - | - |
* Rain since midnight (hover to see other rain measurements)
** Current wind speed in m/s (hover to see current wind gust speed)